Time;durP1;ratioP1;P1;durP2;ratioP2;P2;SDS_P1;SDS_P2;PMS_P1;PMS_P2;Temp;Humidity;BMP_temperature;BMP_pressure;BME280_temperature;BME280_humidity;BME280_pressure;Samples;Min_cycle;Max_cycle;Signal;HPM_P1;HPM_P2
2022/05/06 00:01:37;;;;;;;37.78;24.73;;;9.80;99.90;;;;;;5115703;27;20142;-77
2022/05/06 00:04:04;;;;;;;33.67;23.67;;;9.70;99.90;;;;;;5115585;27;20086;-77
2022/05/06 00:06:30;;;;;;;35.28;24.38;;;9.70;99.90;;;;;;5098247;27;20053;-77
2022/05/06 00:08:56;;;;;;;34.50;24.25;;;9.70;99.90;;;;;;5081948;27;20391;-77
2022/05/06 00:11:22;;;;;;;35.47;24.70;;;9.70;99.90;;;;;;5114784;28;20043;-77
2022/05/06 00:13:48;;;;;;;34.40;23.60;;;9.70;99.90;;;;;;5115427;27;20046;-77
2022/05/06 00:16:15;;;;;;;35.78;24.23;;;9.70;99.90;;;;;;5097735;27;20425;-77
2022/05/06 00:18:40;;;;;;;34.00;23.67;;;9.70;99.90;;;;;;5133534;27;20047;-77
2022/05/06 00:21:06;;;;;;;30.15;22.50;;;9.70;99.90;;;;;;5115165;28;20137;-77
2022/05/06 00:23:32;;;;;;;30.50;22.40;;;9.70;99.90;;;;;;5134047;27;20243;-77
2022/05/06 00:25:57;;;;;;;27.02;20.90;;;9.60;99.90;;;;;;5140352;27;20109;-77
2022/05/06 00:28:23;;;;;;;27.23;20.77;;;9.60;99.90;;;;;;5139906;27;20085;-77
2022/05/06 00:30:49;;;;;;;30.02;20.15;;;9.50;99.90;;;;;;5122115;27;20479;-77
2022/05/06 00:33:14;;;;;;;28.98;20.40;;;9.40;99.90;;;;;;5104689;27;20055;-79
2022/05/06 00:35:43;;;;;;;26.80;18.58;;;9.40;99.90;;;;;;5104659;27;20078;-77
2022/05/06 00:38:09;;;;;;;29.02;18.75;;;9.30;99.90;;;;;;5121783;27;20621;-77
2022/05/06 00:40:34;;;;;;;24.77;18.38;;;9.30;99.90;;;;;;5087794;27;20074;-77
2022/05/06 00:43:00;;;;;;;26.95;18.23;;;9.20;99.90;;;;;;5105107;27;20054;-77
2022/05/06 00:45:28;;;;;;;28.63;17.80;;;9.20;99.90;;;;;;5070856;27;20046;-77
2022/05/06 00:47:53;;;;;;;19.00;14.45;;;9.20;99.90;;;;;;5104939;27;20050;-77
2022/05/06 00:50:19;;;;;;;17.77;14.27;;;9.20;99.90;;;;;;5121486;27;20394;-77
2022/05/06 00:52:45;;;;;;;20.10;14.05;;;9.10;99.90;;;;;;5104890;27;20111;-77
2022/05/06 00:55:10;;;;;;;20.52;14.98;;;9.10;99.90;;;;;;5140122;27;20050;-77
2022/05/06 00:57:36;;;;;;;23.05;16.95;;;9.10;99.90;;;;;;5104423;27;20043;-77
2022/05/06 01:00:18;;;;;;;27.08;19.27;;;9.00;99.90;;;;;;5140041;27;20089;-77
2022/05/06 01:02:44;;;;;;;26.95;20.00;;;9.00;99.90;;;;;;5121704;27;20475;-77
2022/05/06 01:05:12;;;;;;;27.60;19.95;;;9.00;99.90;;;;;;5104554;27;20521;-77
2022/05/06 01:07:37;;;;;;;24.20;18.20;;;9.00;99.90;;;;;;5087586;27;20096;-77
2022/05/06 01:10:03;;;;;;;20.15;16.48;;;9.00;99.90;;;;;;5104978;27;20047;-77
2022/05/06 01:12:29;;;;;;;20.33;15.38;;;9.00;99.90;;;;;;5087372;27;20054;-77
2022/05/06 01:14:55;;;;;;;17.65;14.30;;;8.90;99.90;;;;;;5121743;27;20055;-77
2022/05/06 01:17:22;;;;;;;20.83;15.32;;;8.90;99.90;;;;;;5120883;27;20235;-78
2022/05/06 01:19:47;;;;;;;22.63;16.10;;;9.00;99.90;;;;;;5121809;27;20043;-77
2022/05/06 01:22:14;;;;;;;21.70;16.33;;;9.00;99.90;;;;;;5139799;27;20444;-77
2022/05/06 01:24:39;;;;;;;24.38;17.25;;;8.90;99.90;;;;;;5103971;27;20051;-76
2022/05/06 01:27:35;;;;;;;24.33;17.38;;;8.90;99.90;;;;;;5104591;27;20055;-77
2022/05/06 01:30:00;;;;;;;24.88;18.02;;;8.90;99.90;;;;;;5086986;27;20047;-77
2022/05/06 01:32:27;;;;;;;25.23;18.48;;;8.80;99.90;;;;;;5121183;27;20095;-77
2022/05/06 01:34:53;;;;;;;25.13;17.98;;;8.80;99.90;;;;;;5120598;27;20058;-77
2022/05/06 01:37:19;;;;;;;25.88;19.60;;;8.80;99.90;;;;;;5100311;27;20436;-77
2022/05/06 01:39:48;;;;;;;28.17;20.15;;;8.80;99.90;;;;;;5084188;27;20055;-77
2022/05/06 01:42:14;;;;;;;26.65;19.05;;;8.80;99.90;;;;;;5101828;27;20099;-77
2022/05/06 01:44:41;;;;;;;28.00;20.92;;;8.70;99.90;;;;;;5117681;27;20055;-77
2022/05/06 01:47:11;;;;;;;31.27;21.45;;;8.80;99.90;;;;;;5084454;27;20042;-77
2022/05/06 01:49:38;;;;;;;32.05;23.08;;;8.70;99.90;;;;;;5083876;27;20088;-77
2022/05/06 01:52:04;;;;;;;34.95;24.52;;;8.70;99.90;;;;;;5101096;27;20043;-77
2022/05/06 01:54:29;;;;;;;30.60;22.58;;;8.60;99.90;;;;;;5083514;27;20475;-77
2022/05/06 01:56:55;;;;;;;27.52;20.42;;;8.60;99.90;;;;;;5084031;27;20058;-77
2022/05/06 01:59:20;;;;;;;30.63;22.33;;;8.60;99.90;;;;;;5100588;27;20046;-76
2022/05/06 02:01:46;;;;;;;29.35;21.42;;;8.50;99.90;;;;;;5100175;27;20055;-77
2022/05/06 02:06:56;;;;;;;31.02;21.17;;;8.50;99.90;;;;;;5136054;27;20152;-77
2022/05/06 02:09:21;;;;;;;30.27;22.33;;;8.50;99.90;;;;;;5100831;27;20055;-77
2022/05/06 02:11:47;;;;;;;28.27;20.08;;;8.50;99.90;;;;;;5100286;27;20039;-77
2022/05/06 02:14:12;;;;;;;23.02;16.85;;;8.60;99.90;;;;;;5100756;27;20066;-78
2022/05/06 02:16:38;;;;;;;25.25;17.70;;;8.50;99.90;;;;;;5083579;27;20046;-77
2022/05/06 02:19:06;;;;;;;28.23;20.50;;;8.50;99.90;;;;;;5117115;27;20100;-77
2022/05/06 02:21:31;;;;;;;19.63;15.80;;;8.50;99.90;;;;;;5117390;27;20121;-77
2022/05/06 02:23:57;;;;;;;21.13;15.82;;;8.40;99.90;;;;;;5117525;27;20130;-77
2022/05/06 02:26:23;;;;;;;25.25;18.08;;;8.50;99.90;;;;;;5113375;28;20051;-77
2022/05/06 02:28:48;;;;;;;24.65;17.52;;;8.50;99.90;;;;;;5096367;28;20047;-77
2022/05/06 02:33:58;;;;;;;22.50;17.25;;;8.40;99.90;;;;;;5113931;28;20138;-77
2022/05/06 02:36:24;;;;;;;23.42;17.23;;;8.40;99.90;;;;;;5113966;28;20432;-77
2022/05/06 02:38:49;;;;;;;20.92;16.17;;;8.40;99.90;;;;;;5113149;28;20541;-77
2022/05/06 02:41:16;;;;;;;19.85;15.63;;;8.40;99.90;;;;;;5114859;28;20479;-77
2022/05/06 02:43:42;;;;;;;19.40;15.48;;;8.30;99.90;;;;;;5114381;28;20051;-77
2022/05/06 02:46:08;;;;;;;18.45;13.77;;;8.30;99.90;;;;;;5096684;28;20054;-77
2022/05/06 02:48:34;;;;;;;19.48;14.38;;;8.20;99.90;;;;;;5095795;28;20421;-77
2022/05/06 02:50:59;;;;;;;15.45;12.63;;;8.20;99.90;;;;;;5113545;28;20040;-77
2022/05/06 02:53:25;;;;;;;15.35;12.60;;;8.30;99.90;;;;;;5113538;28;20043;-76
2022/05/06 02:55:50;;;;;;;19.35;14.88;;;8.10;99.90;;;;;;5113152;28;20047;-77
2022/05/06 02:58:16;;;;;;;16.25;13.80;;;8.10;99.90;;;;;;5113291;28;20043;-77
2022/05/06 03:00:43;;;;;;;16.15;13.65;;;8.10;99.90;;;;;;5095893;28;20051;-77
2022/05/06 03:03:08;;;;;;;15.18;13.48;;;8.10;99.90;;;;;;5113253;28;20043;-77
2022/05/06 03:05:34;;;;;;;20.45;16.23;;;8.10;99.90;;;;;;5096432;28;20058;-77
2022/05/06 03:08:00;;;;;;;23.10;16.52;;;8.10;99.90;;;;;;5114107;28;20042;-77
2022/05/06 03:10:25;;;;;;;27.23;17.88;;;8.00;99.90;;;;;;5113317;28;20425;-76
2022/05/06 03:12:55;;;;;;;32.58;20.70;;;8.00;99.90;;;;;;5112783;28;20047;-77
2022/05/06 03:15:21;;;;;;;36.88;21.45;;;8.10;99.90;;;;;;5112912;28;20043;-76
2022/05/06 03:17:47;;;;;;;28.38;20.02;;;8.20;99.90;;;;;;5112582;28;20047;-76
2022/05/06 03:20:12;;;;;;;33.95;21.33;;;8.20;99.90;;;;;;5112755;28;20463;-76
2022/05/06 03:22:42;;;;;;;23.50;16.88;;;8.30;99.90;;;;;;5078655;28;20395;-78
2022/05/06 03:25:09;;;;;;;54.67;24.27;;;8.30;99.90;;;;;;5120035;27;20391;-77
2022/05/06 03:30:20;;;;;;;48.67;23.58;;;8.30;99.90;;;;;;5098214;28;20109;-77
2022/05/06 03:32:46;;;;;;;91.65;26.42;;;8.30;99.90;;;;;;5078509;28;20048;-77
2022/05/06 03:35:11;;;;;;;247.75;31.38;;;8.40;99.90;;;;;;5095438;28;20044;-77
2022/05/06 03:37:38;;;;;;;211.55;33.03;;;8.40;99.90;;;;;;5095357;28;20050;-77
2022/05/06 03:40:05;;;;;;;278.83;31.40;;;8.40;99.90;;;;;;5095368;28;20044;-77
2022/05/06 03:42:31;;;;;;;358.45;33.85;;;8.50;99.90;;;;;;5112230;28;20063;-77
2022/05/06 03:44:56;;;;;;;246.07;30.63;;;8.60;99.90;;;;;;5078106;28;20387;-77
2022/05/06 03:47:22;;;;;;;295.67;31.90;;;8.60;99.90;;;;;;5112081;28;20484;-77
2022/05/06 03:51:20;;;;;;;265.85;28.77;;;8.60;99.90;;;;;;5111598;28;20070;-78
2022/05/06 03:52:34;;;;;;;227.00;30.75;;;8.70;99.90;;;;;;5112083;28;20056;-77
2022/05/06 03:55:00;;;;;;;113.90;33.38;;;8.70;99.90;;;;;;5111840;28;20055;-77
2022/05/06 03:57:26;;;;;;;129.90;34.45;;;8.70;99.90;;;;;;5113084;28;20392;-76
2022/05/06 03:59:51;;;;;;;151.45;31.02;;;8.80;99.90;;;;;;5111989;28;20086;-77
2022/05/06 04:02:17;;;;;;;198.10;29.02;;;8.80;99.90;;;;;;5094877;28;20039;-77
2022/05/06 04:04:42;;;;;;;107.53;29.33;;;8.80;99.90;;;;;;5113047;28;20400;-77
2022/05/06 04:07:08;;;;;;;58.22;27.73;;;8.80;99.90;;;;;;5095185;28;20077;-77
2022/05/06 04:09:34;;;;;;;205.45;29.65;;;8.90;99.90;;;;;;5112934;28;20051;-77
2022/05/06 04:11:59;;;;;;;55.95;27.23;;;9.00;99.90;;;;;;5111641;28;20502;-77
2022/05/06 04:14:25;;;;;;;66.70;27.52;;;9.00;99.90;;;;;;5094813;28;20046;-78
2022/05/06 04:16:51;;;;;;;136.57;29.48;;;9.10;99.90;;;;;;5094360;28;20123;-77
2022/05/06 04:19:17;;;;;;;74.85;32.30;;;9.10;99.90;;;;;;5111435;28;20039;-78
2022/05/06 04:24:26;;;;;;;75.55;33.97;;;9.20;99.90;;;;;;5111888;28;20051;-76
2022/05/06 04:26:52;;;;;;;83.30;32.10;;;9.20;99.90;;;;;;5111036;28;20142;-78
2022/05/06 04:29:17;;;;;;;118.88;33.08;;;9.30;99.90;;;;;;5111697;28;20556;-76
2022/05/06 04:31:43;;;;;;;106.75;36.00;;;9.30;99.90;;;;;;5111718;28;20104;-77
2022/05/06 04:34:09;;;;;;;77.72;34.33;;;9.30;99.90;;;;;;5094337;28;20044;-78
2022/05/06 04:36:37;;;;;;;116.55;32.92;;;9.40;99.90;;;;;;5111201;28;20055;-76
2022/05/06 04:39:02;;;;;;;136.20;33.35;;;9.40;99.90;;;;;;5110995;28;20113;-77
2022/05/06 04:41:28;;;;;;;95.10;33.20;;;9.40;99.90;;;;;;5112646;28;20475;-76
2022/05/06 04:43:54;;;;;;;97.10;32.25;;;9.50;99.90;;;;;;5112234;28;20403;-77
2022/05/06 04:46:19;;;;;;;154.00;32.35;;;9.50;99.90;;;;;;5094335;28;20052;-78
2022/05/06 04:48:45;;;;;;;125.22;31.67;;;9.60;99.90;;;;;;5112602;28;20157;-76
2022/05/06 04:51:11;;;;;;;88.05;31.13;;;9.50;99.90;;;;;;5112063;28;20468;-76
2022/05/06 04:53:36;;;;;;;127.90;31.25;;;9.60;99.90;;;;;;5112581;28;20097;-76
2022/05/06 04:56:02;;;;;;;115.28;29.35;;;9.60;99.90;;;;;;5112056;28;20131;-78
2022/05/06 04:58:29;;;;;;;119.72;27.80;;;9.60;99.90;;;;;;5111237;28;20126;-77
2022/05/06 05:00:54;;;;;;;65.95;26.77;;;9.60;99.90;;;;;;5112019;28;20051;-76
2022/05/06 05:03:21;;;;;;;123.75;27.05;;;9.60;99.90;;;;;;5112463;28;20177;-77
2022/05/06 05:05:48;;;;;;;100.05;26.27;;;9.60;99.90;;;;;;5094587;28;20127;-77
2022/05/06 05:08:13;;;;;;;95.30;25.40;;;9.70;99.90;;;;;;5077795;28;20047;-77
2022/05/06 05:10:39;;;;;;;173.00;25.10;;;9.60;99.90;;;;;;5113683;28;20404;-77
2022/05/06 05:13:05;;;;;;;98.55;23.25;;;9.60;99.90;;;;;;5115943;28;20124;-77
2022/05/06 05:15:31;;;;;;;55.85;21.73;;;9.60;99.90;;;;;;5115160;28;20108;-78
2022/05/06 05:17:57;;;;;;;63.33;22.05;;;9.60;99.90;;;;;;5114739;28;20421;-77
2022/05/06 05:20:22;;;;;;;116.32;23.80;;;9.70;99.90;;;;;;5116353;28;20104;-77
2022/05/06 05:22:48;;;;;;;74.95;22.05;;;9.70;99.90;;;;;;5115424;28;20126;-78
2022/05/06 05:25:14;;;;;;;49.58;22.15;;;9.70;99.90;;;;;;5114532;28;20518;-78
2022/05/06 05:27:39;;;;;;;99.82;23.52;;;9.70;99.90;;;;;;5114628;28;20051;-77
2022/05/06 05:30:09;;;;;;;169.45;26.50;;;9.80;99.90;;;;;;5115848;28;20127;-78
2022/05/06 05:32:35;;;;;;;56.65;23.80;;;9.90;99.90;;;;;;5114929;28;20104;-77
2022/05/06 05:35:01;;;;;;;83.03;24.52;;;9.90;99.90;;;;;;5097527;28;20043;-76
2022/05/06 05:37:27;;;;;;;63.30;23.95;;;9.90;99.90;;;;;;5097722;28;20051;-78
2022/05/06 05:39:53;;;;;;;123.25;26.02;;;10.00;99.90;;;;;;5114787;28;20047;-77
2022/05/06 05:42:27;;;;;;;49.67;26.55;;;10.00;99.90;;;;;;5115160;28;20475;-75
2022/05/06 05:50:23;;;;;;;75.15;27.25;;;10.30;99.90;;;;;;5114262;28;20471;-78
2022/05/06 05:52:49;;;;;;;105.57;27.45;;;10.30;99.90;;;;;;5114589;28;20086;-77
2022/05/06 05:55:15;;;;;;;100.88;27.77;;;10.30;99.90;;;;;;5115013;28;20464;-77
2022/05/06 05:57:41;;;;;;;78.97;27.60;;;10.40;99.90;;;;;;5115267;27;20120;-78
2022/05/06 06:00:07;;;;;;;59.30;28.35;;;10.40;99.90;;;;;;5114806;28;20434;-78
2022/05/06 06:02:33;;;;;;;88.75;29.77;;;10.50;99.90;;;;;;5097342;28;20082;-78
2022/05/06 06:04:58;;;;;;;52.35;30.45;;;10.60;99.90;;;;;;5115123;28;20515;-77
2022/05/06 06:07:24;;;;;;;76.57;29.42;;;10.60;99.90;;;;;;5113935;28;20090;-77
2022/05/06 06:09:50;;;;;;;87.47;30.63;;;10.70;99.90;;;;;;5115422;28;20043;-77
2022/05/06 06:12:16;;;;;;;72.63;32.13;;;10.70;99.90;;;;;;5096706;28;20047;-77
2022/05/06 06:14:41;;;;;;;59.58;30.77;;;10.80;99.90;;;;;;5114103;28;20071;-77
2022/05/06 06:17:07;;;;;;;61.60;32.97;;;10.80;99.90;;;;;;5114542;28;20368;-77
2022/05/06 06:19:33;;;;;;;54.50;32.30;;;10.80;99.90;;;;;;5113602;28;20044;-77
2022/05/06 06:21:59;;;;;;;76.38;31.88;;;10.90;99.90;;;;;;5096124;28;20052;-78
2022/05/06 06:24:24;;;;;;;61.25;33.42;;;11.00;99.90;;;;;;5113153;28;20403;-77
2022/05/06 06:26:50;;;;;;;58.00;31.88;;;11.10;99.90;;;;;;5096551;28;20055;-77
2022/05/06 06:29:16;;;;;;;51.35;30.40;;;11.10;99.90;;;;;;5113406;28;20062;-77
2022/05/06 06:31:41;;;;;;;49.65;30.63;;;11.20;99.90;;;;;;5114877;28;20043;-78
2022/05/06 06:34:07;;;;;;;50.97;30.55;;;11.30;99.90;;;;;;5114099;28;20040;-77
2022/05/06 06:36:32;;;;;;;48.63;30.55;;;11.40;99.90;;;;;;5114495;28;20078;-77
2022/05/06 06:38:58;;;;;;;70.72;30.27;;;11.50;99.90;;;;;;5096202;28;20044;-78
2022/05/06 06:41:24;;;;;;;45.05;29.00;;;11.50;99.90;;;;;;5114212;28;20052;-77
2022/05/06 06:43:50;;;;;;;67.18;29.10;;;11.70;99.90;;;;;;5114420;28;20043;-78
2022/05/06 06:46:16;;;;;;;56.47;29.65;;;11.70;99.90;;;;;;5079162;28;20078;-78
2022/05/06 06:48:42;;;;;;;45.97;26.35;;;11.70;99.90;;;;;;5096275;28;20048;-78
2022/05/06 06:51:08;;;;;;;47.03;26.27;;;11.70;99.90;;;;;;5114074;28;20050;-78
2022/05/06 06:53:33;;;;;;;45.08;26.85;;;11.70;99.90;;;;;;5096359;28;20031;-78
2022/05/06 06:55:59;;;;;;;39.67;26.05;;;11.80;99.90;;;;;;5095979;28;20047;-78
2022/05/06 06:58:25;;;;;;;40.90;21.95;;;11.90;99.90;;;;;;5078905;28;20123;-77
2022/05/06 07:00:52;;;;;;;33.08;21.23;;;12.00;99.90;;;;;;5114187;28;20050;-78
2022/05/06 07:03:18;;;;;;;24.15;18.27;;;12.00;99.90;;;;;;5112496;28;20052;-78
2022/05/06 07:13:56;;;;;;;20.67;13.75;;;12.10;99.90;;;;;;5098486;28;20134;-77
2022/05/06 07:16:22;;;;;;;18.33;13.13;;;12.10;99.90;;;;;;5095718;28;20043;-77
2022/05/06 07:18:49;;;;;;;18.20;13.48;;;12.10;99.90;;;;;;5112740;28;20048;-78
2022/05/06 07:21:15;;;;;;;17.95;13.23;;;12.20;99.90;;;;;;5112387;28;20047;-78
2022/05/06 07:23:40;;;;;;;17.67;12.80;;;12.30;99.90;;;;;;5095662;28;20051;-77
2022/05/06 07:26:06;;;;;;;15.38;12.23;;;12.30;99.90;;;;;;5113481;28;20075;-77
2022/05/06 07:28:32;;;;;;;15.23;12.50;;;12.40;99.90;;;;;;5112038;28;20102;-78
2022/05/06 07:30:57;;;;;;;15.55;12.57;;;12.50;99.90;;;;;;5112491;28;20150;-79
2022/05/06 07:33:23;;;;;;;15.80;12.63;;;12.50;99.90;;;;;;5094336;28;20066;-77
2022/05/06 07:35:48;;;;;;;14.35;12.43;;;12.60;99.90;;;;;;5112188;28;20483;-77
2022/05/06 07:38:14;;;;;;;14.15;12.52;;;12.70;99.90;;;;;;5094744;28;20035;-77
2022/05/06 07:40:40;;;;;;;14.90;12.40;;;12.70;99.90;;;;;;5112240;28;20055;-76
2022/05/06 07:43:05;;;;;;;14.75;12.48;;;12.70;99.90;;;;;;5112273;28;20651;-77
2022/05/06 07:45:31;;;;;;;16.08;13.43;;;12.80;99.90;;;;;;5111925;28;20503;-80
2022/05/06 07:47:57;;;;;;;17.40;14.30;;;13.00;99.90;;;;;;5078580;28;20104;-77
2022/05/06 07:50:23;;;;;;;18.02;14.35;;;13.10;99.90;;;;;;5111466;28;20043;-76
2022/05/06 07:52:50;;;;;;;17.48;13.95;;;13.10;99.90;;;;;;5113147;28;20040;-77
2022/05/06 07:55:19;;;;;;;15.98;14.15;;;13.10;99.90;;;;;;5111505;28;20069;-77
2022/05/06 07:57:46;;;;;;;30.05;14.27;;;13.10;99.90;;;;;;5095336;28;20496;-75
2022/05/06 08:00:12;;;;;;;16.23;13.65;;;13.20;99.90;;;;;;5078408;28;20421;-78
2022/05/06 08:05:26;;;;;;;16.33;13.38;;;13.20;99.90;;;;;;5097243;28;20120;-78
2022/05/06 08:07:51;;;;;;;16.10;13.05;;;13.30;99.90;;;;;;5112001;28;20446;-78
2022/05/06 08:10:17;;;;;;;12.98;11.68;;;13.40;99.90;;;;;;5112094;28;20092;-79
2022/05/06 08:12:43;;;;;;;12.38;11.05;;;13.50;99.90;;;;;;5094730;28;20044;-76
2022/05/06 08:15:09;;;;;;;12.90;11.38;;;13.70;99.90;;;;;;5112717;28;20040;-75
2022/05/06 08:17:37;;;;;;;11.52;10.32;;;13.80;99.90;;;;;;5094454;28;20094;-76
2022/05/06 08:20:06;;;;;;;11.93;10.25;;;13.80;99.90;;;;;;5095099;28;20062;-76
2022/05/06 08:22:31;;;;;;;10.68;9.27;;;14.00;99.90;;;;;;5094305;28;20124;-76
2022/05/06 08:24:57;;;;;;;9.95;8.95;;;14.00;99.90;;;;;;5111738;28;20043;-76
2022/05/06 08:27:22;;;;;;;8.98;8.10;;;14.00;99.90;;;;;;5110479;28;20477;-76
2022/05/06 08:29:48;;;;;;;9.25;8.35;;;14.00;99.90;;;;;;5111792;28;20107;-75
2022/05/06 08:32:14;;;;;;;9.48;8.57;;;14.10;99.90;;;;;;5094844;28;20506;-75
2022/05/06 08:34:39;;;;;;;9.40;8.38;;;14.20;99.90;;;;;;5094224;28;20547;-76
2022/05/06 08:37:05;;;;;;;8.30;7.50;;;14.30;99.90;;;;;;5077835;28;20472;-76
2022/05/06 08:39:31;;;;;;;8.52;7.68;;;14.40;99.90;;;;;;5111824;28;20051;-77
2022/05/06 08:41:56;;;;;;;8.57;7.82;;;14.50;99.90;;;;;;5111450;28;20044;-79
2022/05/06 08:52:36;;;;;;;8.20;7.50;;;14.80;99.90;;;;;;5100826;28;20098;-77
2022/05/06 08:55:03;;;;;;;8.40;7.60;;;14.90;99.90;;;;;;5082080;28;20044;-77
2022/05/06 08:57:29;;;;;;;7.70;7.10;;;14.90;99.90;;;;;;5098179;28;20055;-77
2022/05/06 08:59:55;;;;;;;8.15;7.32;;;15.00;99.90;;;;;;5115361;28;20039;-77
2022/05/06 09:02:20;;;;;;;8.35;7.65;;;15.10;99.90;;;;;;5115374;28;20410;-76
2022/05/06 09:04:46;;;;;;;8.55;7.72;;;15.10;99.90;;;;;;5115832;28;20079;-75
2022/05/06 09:07:22;;;;;;;8.10;7.32;;;15.20;99.90;;;;;;5081576;28;20043;-75
2022/05/06 09:10:13;;;;;;;8.45;7.75;;;15.30;99.90;;;;;;5115015;28;20051;-75
2022/05/06 09:12:44;;;;;;;9.68;7.50;;;15.40;99.90;;;;;;5114916;28;20085;-76
2022/05/06 09:17:56;;;;;;;7.93;7.18;;;15.60;99.90;;;;;;5115093;28;20055;-77
2022/05/06 09:20:22;;;;;;;8.20;7.40;;;15.70;99.90;;;;;;5098208;28;20413;-76
2022/05/06 09:22:50;;;;;;;6.72;6.15;;;15.80;99.90;;;;;;5097566;28;20059;-76
2022/05/06 09:25:38;;;;;;;7.20;6.60;;;15.80;99.90;;;;;;5098436;28;20078;-76
2022/05/06 09:28:04;;;;;;;7.50;6.90;;;15.80;99.90;;;;;;5114354;28;20060;-78
2022/05/06 09:30:30;;;;;;;7.25;6.28;;;15.80;99.90;;;;;;5114429;28;20058;-78
2022/05/06 09:32:56;;;;;;;6.70;6.00;;;15.70;99.90;;;;;;5081017;28;20399;-79
2022/05/06 09:35:28;;;;;;;6.97;6.30;;;15.60;99.90;;;;;;5114966;28;20130;-80
2022/05/06 09:37:53;;;;;;;7.65;6.82;;;15.60;99.60;;;;;;5081245;28;20040;-77
2022/05/06 09:40:20;;;;;;;8.15;7.40;;;15.50;99.70;;;;;;5097631;28;20149;-76
2022/05/06 09:43:06;;;;;;;8.32;7.53;;;15.40;99.80;;;;;;5097312;28;20054;-76
2022/05/06 09:45:38;;;;;;;9.27;8.38;;;15.50;99.90;;;;;;5113610;28;20133;-76
2022/05/06 09:48:06;;;;;;;7.57;6.88;;;15.50;99.90;;;;;;5114317;28;20404;-75
2022/05/06 09:50:36;;;;;;;8.23;6.40;;;15.60;99.40;;;;;;5113880;28;20043;-76
2022/05/06 09:53:02;;;;;;;7.33;6.67;;;15.70;98.90;;;;;;5114561;28;20127;-76
2022/05/06 09:55:29;;;;;;;6.70;6.07;;;15.60;99.00;;;;;;5097553;28;20047;-75
2022/05/06 09:57:59;;;;;;;7.80;6.18;;;15.70;98.50;;;;;;5095725;28;20052;-75
2022/05/06 10:00:25;;;;;;;7.30;6.60;;;15.80;98.50;;;;;;5097410;28;20056;-76
2022/05/06 10:02:51;;;;;;;7.28;6.68;;;15.80;98.60;;;;;;5113542;28;20123;-75
2022/05/06 10:05:17;;;;;;;7.60;6.90;;;15.90;98.80;;;;;;5097107;28;20128;-75
2022/05/06 10:07:46;;;;;;;6.68;6.07;;;15.90;98.70;;;;;;5079956;28;20047;-75
2022/05/06 10:10:25;;;;;;;6.32;5.70;;;16.00;97.60;;;;;;5097581;28;20058;-75
2022/05/06 10:13:03;;;;;;;6.72;6.13;;;16.20;96.00;;;;;;5113601;28;20051;-75
2022/05/06 10:15:29;;;;;;;8.98;6.07;;;16.40;96.10;;;;;;5113784;28;20051;-75
2022/05/06 10:17:56;;;;;;;6.55;6.00;;;16.50;96.40;;;;;;5114494;28;20044;-77
2022/05/06 10:20:34;;;;;;;7.10;6.30;;;16.60;96.80;;;;;;5080107;28;20044;-76
2022/05/06 10:23:04;;;;;;;6.47;5.95;;;16.80;95.60;;;;;;5113951;28;20545;-76
2022/05/06 10:25:41;;;;;;;6.50;5.27;;;16.80;95.80;;;;;;5114748;28;20047;-79
2022/05/06 10:34:09;;;;;;;4.78;4.00;;;16.90;93.80;;;;;;5114743;28;20090;-79
2022/05/06 10:36:56;;;;;;;4.25;3.65;;;16.90;93.70;;;;;;5096492;28;20047;-77
2022/05/06 10:39:35;;;;;;;3.17;2.88;;;17.10;92.40;;;;;;5113410;28;20039;-79
2022/05/06 10:42:07;;;;;;;3.55;3.25;;;17.10;90.90;;;;;;5097560;28;20051;-83
2022/05/06 10:44:45;;;;;;;3.80;3.40;;;17.10;91.00;;;;;;5096235;28;20455;-77
2022/05/06 10:47:11;;;;;;;4.63;4.18;;;17.10;91.20;;;;;;5096192;28;20055;-75
2022/05/06 10:49:40;;;;;;;4.03;3.63;;;17.10;92.10;;;;;;5114271;28;20536;-75
2022/05/06 10:52:20;;;;;;;4.07;3.08;;;17.20;91.20;;;;;;5114305;28;20065;-75
2022/05/06 10:54:59;;;;;;;4.70;3.33;;;17.40;90.20;;;;;;5112977;28;20369;-75
2022/05/06 10:57:26;;;;;;;5.28;3.80;;;17.50;88.60;;;;;;5114241;28;20039;-75
2022/05/06 11:00:04;;;;;;;3.70;3.40;;;17.50;89.90;;;;;;5112568;28;20144;-75
2022/05/06 11:02:31;;;;;;;7.03;4.22;;;17.60;88.40;;;;;;5113207;28;20434;-75
2022/05/06 11:04:58;;;;;;;3.85;3.55;;;17.70;89.50;;;;;;5095359;28;20495;-76
2022/05/06 11:07:24;;;;;;;5.20;3.78;;;17.80;88.60;;;;;;5095859;28;20054;-75
2022/05/06 11:09:51;;;;;;;4.63;3.67;;;17.80;89.30;;;;;;5112375;28;20089;-78
2022/05/06 11:12:29;;;;;;;3.60;3.30;;;17.80;89.70;;;;;;5095924;28;20537;-77
2022/05/06 11:14:55;;;;;;;3.95;3.65;;;17.90;88.60;;;;;;5113127;28;20047;-75
2022/05/06 11:17:22;;;;;;;3.30;3.00;;;18.00;87.80;;;;;;5113821;28;20043;-76
2022/05/06 11:19:48;;;;;;;4.97;4.05;;;18.10;88.00;;;;;;5095212;28;20052;-75
2022/05/06 11:22:14;;;;;;;4.05;3.38;;;18.10;87.00;;;;;;5113737;28;20048;-75
2022/05/06 11:24:40;;;;;;;3.72;3.42;;;18.10;87.70;;;;;;5112664;28;20052;-75
2022/05/06 11:27:17;;;;;;;3.75;3.05;;;18.20;87.50;;;;;;5111837;28;20048;-75
2022/05/06 11:29:55;;;;;;;3.60;3.20;;;18.30;87.20;;;;;;5112643;28;20372;-75
2022/05/06 11:32:21;;;;;;;4.43;3.08;;;18.50;85.40;;;;;;5112572;28;20122;-75
2022/05/06 11:34:59;;;;;;;2.78;2.50;;;18.50;85.70;;;;;;5111613;28;20072;-75
2022/05/06 11:37:29;;;;;;;4.63;3.03;;;18.70;84.10;;;;;;5113429;28;20407;-76
2022/05/06 11:42:39;;;;;;;5.57;2.92;;;18.70;82.30;;;;;;5112511;28;20051;-77
2022/05/06 11:47:49;;;;;;;2.85;2.50;;;18.80;83.10;;;;;;5111846;28;20097;-77
2022/05/06 11:50:15;;;;;;;4.60;2.92;;;18.80;82.60;;;;;;5078457;28;20079;-75
2022/05/06 11:52:41;;;;;;;3.40;3.00;;;18.90;81.40;;;;;;5113223;28;20126;-75
2022/05/06 11:55:07;;;;;;;3.72;3.03;;;18.90;81.00;;;;;;5111228;28;20126;-75
2022/05/06 11:57:35;;;;;;;6.80;2.88;;;18.90;81.20;;;;;;5111810;28;20055;-75
2022/05/06 12:00:03;;;;;;;5.25;3.45;;;18.90;82.80;;;;;;5094486;28;20048;-79
2022/05/06 12:02:29;;;;;;;4.20;2.92;;;19.00;81.70;;;;;;5111817;28;20104;-75
2022/05/06 12:04:54;;;;;;;3.00;2.80;;;19.00;81.10;;;;;;5094630;28;20118;-75
2022/05/06 12:07:20;;;;;;;6.78;3.53;;;19.10;81.30;;;;;;5111639;28;20039;-75
2022/05/06 12:09:47;;;;;;;5.13;3.67;;;19.10;81.40;;;;;;5112447;28;20047;-75
2022/05/06 12:12:12;;;;;;;4.00;3.70;;;19.20;80.70;;;;;;5094762;28;20055;-75
2022/05/06 12:14:39;;;;;;;3.75;3.38;;;19.10;79.50;;;;;;5094825;28;20121;-75
2022/05/06 12:17:11;;;;;;;3.88;3.47;;;19.20;80.80;;;;;;5111262;28;20047;-75
2022/05/06 12:19:37;;;;;;;4.47;3.13;;;19.30;79.90;;;;;;5094497;28;20039;-75
2022/05/06 12:22:04;;;;;;;4.05;3.63;;;19.40;79.50;;;;;;5111253;28;20153;-75
2022/05/06 12:24:52;;;;;;;4.13;3.72;;;19.60;79.80;;;;;;5094628;28;20048;-75
2022/05/06 12:27:31;;;;;;;4.03;3.63;;;19.80;77.20;;;;;;5111503;28;20429;-75
2022/05/06 12:30:01;;;;;;;6.95;3.35;;;20.00;77.10;;;;;;5111074;28;20047;-76
2022/05/06 12:32:28;;;;;;;6.00;3.70;;;20.00;76.60;;;;;;5095645;28;20100;-76
2022/05/06 12:35:07;;;;;;;4.57;3.65;;;20.10;77.00;;;;;;5112403;28;20048;-81
2022/05/06 12:37:33;;;;;;;8.48;3.95;;;20.20;75.60;;;;;;5094943;28;20486;-76
2022/05/06 12:39:59;;;;;;;6.18;4.18;;;20.20;76.20;;;;;;5110908;28;20048;-75
2022/05/06 12:42:25;;;;;;;6.05;3.95;;;20.10;77.10;;;;;;5094856;28;20054;-75
2022/05/06 12:44:50;;;;;;;4.45;4.05;;;20.10;77.00;;;;;;5094860;28;20052;-75
2022/05/06 12:50:09;;;;;;;6.85;4.25;;;20.30;77.30;;;;;;5080294;28;20063;-75
2022/05/06 12:52:35;;;;;;;5.50;4.57;;;20.40;76.30;;;;;;5112608;28;20074;-76
2022/05/06 12:55:05;;;;;;;6.47;3.88;;;20.50;75.80;;;;;;5112014;28;20051;-75
2022/05/06 12:57:30;;;;;;;9.13;3.20;;;20.70;75.00;;;;;;5077758;28;20047;-75
2022/05/06 12:59:56;;;;;;;4.50;3.65;;;20.80;74.20;;;;;;5111164;28;20044;-75
2022/05/06 13:02:22;;;;;;;6.55;3.28;;;20.90;72.20;;;;;;5094681;28;20047;-75
2022/05/06 13:04:47;;;;;;;4.43;3.00;;;20.90;72.40;;;;;;5111596;28;20054;-75
2022/05/06 13:07:14;;;;;;;3.42;2.70;;;20.90;71.90;;;;;;5094254;28;20070;-75
2022/05/06 13:09:39;;;;;;;4.32;2.90;;;20.90;70.50;;;;;;5112807;28;20042;-75
2022/05/06 13:12:06;;;;;;;4.85;2.80;;;20.80;70.00;;;;;;5094476;28;20047;-75
2022/05/06 13:14:31;;;;;;;3.33;2.65;;;20.70;70.90;;;;;;5111547;28;20043;-76
2022/05/06 13:16:57;;;;;;;4.55;2.60;;;20.80;71.10;;;;;;5111789;28;20100;-75
2022/05/06 13:19:23;;;;;;;3.83;2.00;;;20.70;69.60;;;;;;5112439;28;20075;-75
2022/05/06 13:21:48;;;;;;;4.47;2.92;;;20.70;69.50;;;;;;5112672;28;20039;-75
2022/05/06 13:24:14;;;;;;;3.35;2.45;;;20.60;69.50;;;;;;5111262;28;20467;-75
2022/05/06 13:26:39;;;;;;;5.40;2.45;;;20.60;70.80;;;;;;5111665;28;20040;-75
2022/05/06 13:29:05;;;;;;;4.05;2.90;;;20.70;69.10;;;;;;5132470;28;20095;-75
2022/05/06 13:31:31;;;;;;;3.80;3.15;;;20.80;68.10;;;;;;5116089;27;20124;-76